This is the latest recevied weather packets stored in our database for station/object N3DXC. If no packets are shown the sender has not sent any weather packets the latest 1 day(s).
| Time | Temp. | Humidity | Pressure | Rain* | Wind** | Luminosity | Snow |
|---|---|---|---|---|---|---|---|
| 1778052888 | 12.78° C | 93% | 1008.4 hPa | 0.51 mm | - | - | - |
| 1778052588 | 12.78° C | 93% | 1008.5 hPa | 0.51 mm | - | - | - |
| 1778052288 | 12.78° C | 93% | 1008.5 hPa | 0.51 mm | - | - | - |
| 1778051988 | 12.78° C | 93% | 1008.6 hPa | 0.51 mm | - | - | - |
| 1778051688 | 12.78° C | 92% | 1008.7 hPa | 0.51 mm | - | - | - |
| 1778051388 | 12.78° C | 92% | 1008.8 hPa | 0.76 mm | - | - | - |
| 1778051088 | 12.78° C | 91% | 1008.9 hPa | 0.76 mm | - | - | - |
| 1778050188 | 12.78° C | 89% | 1009 hPa | 0.76 mm | - | - | - |
| 1778049888 | 13.33° C | 89% | 1009 hPa | 0.76 mm | - | - | - |
| 1778049588 | 13.33° C | 89% | 1009.2 hPa | 0.76 mm | - | - | - |
| 1778049288 | 13.33° C | 88% | 1009.2 hPa | 1.02 mm | - | - | - |
| 1778048988 | 13.33° C | 86% | 1009.2 hPa | 0.76 mm | - | - | - |
| 1778048688 | 13.33° C | 85% | 1009.1 hPa | 0.76 mm | - | - | - |
| 1778048388 | 13.33° C | 84% | 1009.1 hPa | 0.76 mm | - | - | - |
| 1778048088 | 13.89° C | 82% | 1009.2 hPa | 0.76 mm | - | - | - |
| 1778047488 | 13.89° C | 79% | 1009.3 hPa | 0.51 mm | - | - | - |
| 1778047188 | 14.44° C | 77% | 1009.2 hPa | 0.51 mm | - | - | - |
| 1778046888 | 14.44° C | 75% | 1009.2 hPa | 0.25 mm | - | - | - |
| 1778046589 | 15° C | 73% | 1009.2 hPa | 0.25 mm | - | - | - |
| 1778046288 | 15° C | 71% | 1009.3 hPa | 0.25 mm | - | - | - |
| 1778045988 | 15.56° C | 67% | 1009.3 hPa | 0.25 mm | - | - | - |
| 1778045388 | 16.67° C | 60% | 1009.2 hPa | 0 mm | - | - | - |
| 1778045088 | 16.67° C | 58% | 1009.2 hPa | 0 mm | - | - | - |
| 1778044188 | 17.22° C | 55% | 1008.9 hPa | 0 mm | - | - | - |
| 1778043288 | 17.22° C | 55% | 1008.9 hPa | 0 mm | - | - | - |
* Rain latest hour (hover to see other rain measurements)
** Current wind speed in m/s (hover to see current wind gust speed)